sensor_id;sensor_type;location;lat;lon;timestamp;temperature;humidity
64685;DHT22;51109;47.414;18.954;2023-12-04T00:02:07;-4.20;99.90
64685;DHT22;51109;47.414;18.954;2023-12-04T00:04:33;-4.10;99.90
64685;DHT22;51109;47.414;18.954;2023-12-04T00:06:59;-4.10;99.90
64685;DHT22;51109;47.414;18.954;2023-12-04T00:09:25;-4.30;99.90
64685;DHT22;51109;47.414;18.954;2023-12-04T00:11:52;-4.40;99.90
64685;DHT22;51109;47.414;18.954;2023-12-04T00:14:18;-4.50;99.90
64685;DHT22;51109;47.414;18.954;2023-12-04T00:16:44;-4.60;99.90
64685;DHT22;51109;47.414;18.954;2023-12-04T00:19:10;-4.40;99.90
64685;DHT22;51109;47.414;18.954;2023-12-04T00:21:36;-4.30;99.90
64685;DHT22;51109;47.414;18.954;2023-12-04T00:24:02;-4.40;99.90
64685;DHT22;51109;47.414;18.954;2023-12-04T00:26:28;-4.30;99.90
64685;DHT22;51109;47.414;18.954;2023-12-04T00:28:54;-4.30;99.90
64685;DHT22;51109;47.414;18.954;2023-12-04T00:31:20;-4.30;99.90
64685;DHT22;51109;47.414;18.954;2023-12-04T00:33:46;-4.40;99.90
64685;DHT22;51109;47.414;18.954;2023-12-04T00:36:13;-4.20;99.90
64685;DHT22;51109;47.414;18.954;2023-12-04T00:38:39;-4.20;99.90
64685;DHT22;51109;47.414;18.954;2023-12-04T00:41:05;-4.10;99.90
64685;DHT22;51109;47.414;18.954;2023-12-04T00:43:31;-4.20;99.90
64685;DHT22;51109;47.414;18.954;2023-12-04T00:45:57;-4.20;99.90
64685;DHT22;51109;47.414;18.954;2023-12-04T00:48:23;-4.10;99.90
64685;DHT22;51109;47.414;18.954;2023-12-04T00:50:50;-4.20;99.90
64685;DHT22;51109;47.414;18.954;2023-12-04T00:53:16;-4.20;99.90
64685;DHT22;51109;47.414;18.954;2023-12-04T00:55:42;-4.20;99.90
64685;DHT22;51109;47.414;18.954;2023-12-04T00:58:08;-4.10;99.90
64685;DHT22;51109;47.414;18.954;2023-12-04T01:00:34;-4.10;99.90
64685;DHT22;51109;47.414;18.954;2023-12-04T01:03:00;-4.10;99.90
64685;DHT22;51109;47.414;18.954;2023-12-04T01:05:26;-4.10;99.90
64685;DHT22;51109;47.414;18.954;2023-12-04T01:07:52;-4.10;99.90
64685;DHT22;51109;47.414;18.954;2023-12-04T01:10:18;-4.30;99.90
64685;DHT22;51109;47.414;18.954;2023-12-04T01:12:44;-4.30;99.90
64685;DHT22;51109;47.414;18.954;2023-12-04T01:15:10;-4.40;99.90
64685;DHT22;51109;47.414;18.954;2023-12-04T01:17:36;-4.50;99.90
64685;DHT22;51109;47.414;18.954;2023-12-04T01:20:02;-4.50;99.90
64685;DHT22;51109;47.414;18.954;2023-12-04T01:22:28;-4.40;99.90
64685;DHT22;51109;47.414;18.954;2023-12-04T01:24:54;-4.60;99.90
64685;DHT22;51109;47.414;18.954;2023-12-04T01:27:20;-4.60;99.90
64685;DHT22;51109;47.414;18.954;2023-12-04T01:29:46;-4.60;99.90
64685;DHT22;51109;47.414;18.954;2023-12-04T01:32:12;-4.50;99.90
64685;DHT22;51109;47.414;18.954;2023-12-04T01:34:38;-4.40;99.90
64685;DHT22;51109;47.414;18.954;2023-12-04T01:37:04;-4.40;99.90
64685;DHT22;51109;47.414;18.954;2023-12-04T01:39:29;-4.60;99.90
64685;DHT22;51109;47.414;18.954;2023-12-04T01:41:55;-4.70;99.90
64685;DHT22;51109;47.414;18.954;2023-12-04T01:44:21;-4.70;99.90
64685;DHT22;51109;47.414;18.954;2023-12-04T01:46:48;-4.50;99.90
64685;DHT22;51109;47.414;18.954;2023-12-04T01:49:14;-4.40;99.90
64685;DHT22;51109;47.414;18.954;2023-12-04T01:51:40;-4.30;99.90
64685;DHT22;51109;47.414;18.954;2023-12-04T01:54:07;-4.30;99.90
64685;DHT22;51109;47.414;18.954;2023-12-04T01:56:34;-4.30;99.90
64685;DHT22;51109;47.414;18.954;2023-12-04T01:59:02;-4.40;99.90
64685;DHT22;51109;47.414;18.954;2023-12-04T02:01:28;-4.50;99.90
64685;DHT22;51109;47.414;18.954;2023-12-04T02:03:54;-4.60;99.90
64685;DHT22;51109;47.414;18.954;2023-12-04T02:06:21;-4.80;99.90
64685;DHT22;51109;47.414;18.954;2023-12-04T02:08:47;-4.90;99.90
64685;DHT22;51109;47.414;18.954;2023-12-04T02:11:15;-4.70;99.90
64685;DHT22;51109;47.414;18.954;2023-12-04T02:13:41;-4.60;99.90
64685;DHT22;51109;47.414;18.954;2023-12-04T02:16:09;-4.50;99.90
64685;DHT22;51109;47.414;18.954;2023-12-04T02:18:36;-4.40;99.90
64685;DHT22;51109;47.414;18.954;2023-12-04T02:21:03;-4.40;99.90
64685;DHT22;51109;47.414;18.954;2023-12-04T02:23:29;-4.30;99.90
64685;DHT22;51109;47.414;18.954;2023-12-04T02:25:59;-4.40;99.90
64685;DHT22;51109;47.414;18.954;2023-12-04T02:28:34;-4.40;99.90
64685;DHT22;51109;47.414;18.954;2023-12-04T02:31:03;-4.70;99.90
64685;DHT22;51109;47.414;18.954;2023-12-04T02:33:30;-4.60;99.90
64685;DHT22;51109;47.414;18.954;2023-12-04T02:35:57;-4.50;99.90
64685;DHT22;51109;47.414;18.954;2023-12-04T02:38:25;-4.50;99.90
64685;DHT22;51109;47.414;18.954;2023-12-04T02:40:51;-4.80;99.90
64685;DHT22;51109;47.414;18.954;2023-12-04T02:43:17;-4.80;99.90
64685;DHT22;51109;47.414;18.954;2023-12-04T02:45:43;-4.90;99.90
64685;DHT22;51109;47.414;18.954;2023-12-04T02:48:09;-4.70;99.90
64685;DHT22;51109;47.414;18.954;2023-12-04T02:50:35;-4.50;99.90
64685;DHT22;51109;47.414;18.954;2023-12-04T02:53:02;-4.50;99.90
64685;DHT22;51109;47.414;18.954;2023-12-04T02:55:28;-4.40;99.90
64685;DHT22;51109;47.414;18.954;2023-12-04T02:57:54;-4.40;99.90
64685;DHT22;51109;47.414;18.954;2023-12-04T03:00:20;-4.50;99.90
64685;DHT22;51109;47.414;18.954;2023-12-04T03:02:46;-4.60;99.90
64685;DHT22;51109;47.414;18.954;2023-12-04T03:05:12;-4.50;99.90
64685;DHT22;51109;47.414;18.954;2023-12-04T03:07:38;-4.50;99.90
64685;DHT22;51109;47.414;18.954;2023-12-04T03:10:04;-4.50;99.90
64685;DHT22;51109;47.414;18.954;2023-12-04T03:12:30;-4.60;99.90
64685;DHT22;51109;47.414;18.954;2023-12-04T03:14:56;-4.60;99.90
64685;DHT22;51109;47.414;18.954;2023-12-04T03:17:22;-4.70;99.90
64685;DHT22;51109;47.414;18.954;2023-12-04T03:19:47;-4.70;99.90
64685;DHT22;51109;47.414;18.954;2023-12-04T03:22:13;-4.70;99.90
64685;DHT22;51109;47.414;18.954;2023-12-04T03:24:39;-4.70;99.90
64685;DHT22;51109;47.414;18.954;2023-12-04T03:27:05;-4.80;99.90
64685;DHT22;51109;47.414;18.954;2023-12-04T03:29:31;-4.80;99.90
64685;DHT22;51109;47.414;18.954;2023-12-04T03:31:57;-5.40;99.90
64685;DHT22;51109;47.414;18.954;2023-12-04T03:34:23;-4.80;99.90
64685;DHT22;51109;47.414;18.954;2023-12-04T03:36:49;-4.90;99.90
64685;DHT22;51109;47.414;18.954;2023-12-04T03:39:15;-5.00;99.90
64685;DHT22;51109;47.414;18.954;2023-12-04T03:41:40;-5.00;99.90
64685;DHT22;51109;47.414;18.954;2023-12-04T03:44:06;-5.00;99.90
64685;DHT22;51109;47.414;18.954;2023-12-04T03:46:32;-4.90;99.90
64685;DHT22;51109;47.414;18.954;2023-12-04T03:48:59;-5.00;99.90
64685;DHT22;51109;47.414;18.954;2023-12-04T03:51:25;-5.00;99.90
64685;DHT22;51109;47.414;18.954;2023-12-04T03:53:51;-5.00;99.90
64685;DHT22;51109;47.414;18.954;2023-12-04T03:56:17;-5.00;99.90
64685;DHT22;51109;47.414;18.954;2023-12-04T03:58:43;-5.00;99.90
64685;DHT22;51109;47.414;18.954;2023-12-04T04:01:08;-5.00;99.90
64685;DHT22;51109;47.414;18.954;2023-12-04T04:03:34;-5.00;99.90
64685;DHT22;51109;47.414;18.954;2023-12-04T04:06:00;-5.00;99.90
64685;DHT22;51109;47.414;18.954;2023-12-04T04:08:26;-4.90;99.90
64685;DHT22;51109;47.414;18.954;2023-12-04T04:10:52;-4.80;99.90
64685;DHT22;51109;47.414;18.954;2023-12-04T04:13:18;-4.90;99.90
64685;DHT22;51109;47.414;18.954;2023-12-04T04:15:44;-4.80;99.90
64685;DHT22;51109;47.414;18.954;2023-12-04T04:18:11;-4.80;99.90
64685;DHT22;51109;47.414;18.954;2023-12-04T04:20:37;-4.80;99.90
64685;DHT22;51109;47.414;18.954;2023-12-04T04:23:03;-4.70;99.90
64685;DHT22;51109;47.414;18.954;2023-12-04T04:25:29;-4.80;99.90
64685;DHT22;51109;47.414;18.954;2023-12-04T04:27:55;-4.70;99.90
64685;DHT22;51109;47.414;18.954;2023-12-04T04:30:20;-4.60;99.90
64685;DHT22;51109;47.414;18.954;2023-12-04T04:32:46;-4.60;99.90
64685;DHT22;51109;47.414;18.954;2023-12-04T04:35:12;-4.60;99.90
64685;DHT22;51109;47.414;18.954;2023-12-04T04:37:38;-4.50;99.90
64685;DHT22;51109;47.414;18.954;2023-12-04T04:40:05;-4.60;99.90
64685;DHT22;51109;47.414;18.954;2023-12-04T04:42:31;-4.60;99.90
64685;DHT22;51109;47.414;18.954;2023-12-04T04:44:57;-4.50;99.90
64685;DHT22;51109;47.414;18.954;2023-12-04T04:47:23;-4.50;99.90
64685;DHT22;51109;47.414;18.954;2023-12-04T04:49:48;-4.50;99.90
64685;DHT22;51109;47.414;18.954;2023-12-04T04:52:14;-4.40;99.90
64685;DHT22;51109;47.414;18.954;2023-12-04T04:54:40;-4.50;99.90
64685;DHT22;51109;47.414;18.954;2023-12-04T04:57:06;-4.40;99.90
64685;DHT22;51109;47.414;18.954;2023-12-04T04:59:33;-4.40;99.90
64685;DHT22;51109;47.414;18.954;2023-12-04T05:01:59;-4.30;99.90
64685;DHT22;51109;47.414;18.954;2023-12-04T05:04:25;-4.20;99.90
64685;DHT22;51109;47.414;18.954;2023-12-04T05:06:51;-4.30;99.90
64685;DHT22;51109;47.414;18.954;2023-12-04T05:09:17;-4.30;99.90
64685;DHT22;51109;47.414;18.954;2023-12-04T05:11:43;-4.50;99.90
64685;DHT22;51109;47.414;18.954;2023-12-04T05:14:09;-4.60;99.90
64685;DHT22;51109;47.414;18.954;2023-12-04T05:16:37;-4.40;99.90
64685;DHT22;51109;47.414;18.954;2023-12-04T05:19:09;-4.50;99.90
64685;DHT22;51109;47.414;18.954;2023-12-04T05:21:35;-4.30;99.90
64685;DHT22;51109;47.414;18.954;2023-12-04T05:24:01;-4.20;99.90
64685;DHT22;51109;47.414;18.954;2023-12-04T05:26:27;-4.10;99.90
64685;DHT22;51109;47.414;18.954;2023-12-04T05:28:53;-4.30;99.90
64685;DHT22;51109;47.414;18.954;2023-12-04T05:31:19;-4.50;99.90
64685;DHT22;51109;47.414;18.954;2023-12-04T05:33:45;-4.50;99.90
64685;DHT22;51109;47.414;18.954;2023-12-04T05:36:11;-4.30;99.90
64685;DHT22;51109;47.414;18.954;2023-12-04T05:38:37;-4.40;99.90
64685;DHT22;51109;47.414;18.954;2023-12-04T05:41:03;-4.40;99.90
64685;DHT22;51109;47.414;18.954;2023-12-04T05:43:29;-4.40;99.90
64685;DHT22;51109;47.414;18.954;2023-12-04T05:45:55;-4.50;99.90
64685;DHT22;51109;47.414;18.954;2023-12-04T05:48:21;-4.70;99.90
64685;DHT22;51109;47.414;18.954;2023-12-04T05:50:47;-4.70;99.90
64685;DHT22;51109;47.414;18.954;2023-12-04T05:53:13;-4.80;99.90
64685;DHT22;51109;47.414;18.954;2023-12-04T05:55:39;-4.60;99.90
64685;DHT22;51109;47.414;18.954;2023-12-04T05:58:05;-4.50;99.90
64685;DHT22;51109;47.414;18.954;2023-12-04T06:00:31;-4.60;99.90
64685;DHT22;51109;47.414;18.954;2023-12-04T06:02:57;-4.50;99.90
64685;DHT22;51109;47.414;18.954;2023-12-04T06:05:22;-4.50;99.90
64685;DHT22;51109;47.414;18.954;2023-12-04T06:07:49;-4.50;99.90
64685;DHT22;51109;47.414;18.954;2023-12-04T06:10:15;-4.40;99.90
64685;DHT22;51109;47.414;18.954;2023-12-04T06:12:40;-4.40;99.90
64685;DHT22;51109;47.414;18.954;2023-12-04T06:15:07;-4.50;99.90
64685;DHT22;51109;47.414;18.954;2023-12-04T06:17:33;-4.50;99.90
64685;DHT22;51109;47.414;18.954;2023-12-04T06:19:59;-4.50;99.90
64685;DHT22;51109;47.414;18.954;2023-12-04T06:22:25;-4.40;99.90
64685;DHT22;51109;47.414;18.954;2023-12-04T06:24:52;-4.40;99.90
64685;DHT22;51109;47.414;18.954;2023-12-04T06:27:19;-4.50;99.90
64685;DHT22;51109;47.414;18.954;2023-12-04T06:29:46;-4.60;99.90
64685;DHT22;51109;47.414;18.954;2023-12-04T06:32:13;-4.50;99.90
64685;DHT22;51109;47.414;18.954;2023-12-04T06:34:39;-4.50;99.90
64685;DHT22;51109;47.414;18.954;2023-12-04T06:37:10;-4.60;99.90
64685;DHT22;51109;47.414;18.954;2023-12-04T06:39:37;-4.50;99.90
64685;DHT22;51109;47.414;18.954;2023-12-04T06:42:07;-4.40;99.90
64685;DHT22;51109;47.414;18.954;2023-12-04T06:44:34;-4.50;99.90
64685;DHT22;51109;47.414;18.954;2023-12-04T06:47:03;-4.40;99.90
64685;DHT22;51109;47.414;18.954;2023-12-04T06:49:31;-4.30;99.90
64685;DHT22;51109;47.414;18.954;2023-12-04T06:51:58;-4.30;99.90
64685;DHT22;51109;47.414;18.954;2023-12-04T06:54:24;-4.30;99.90
64685;DHT22;51109;47.414;18.954;2023-12-04T06:56:50;-4.10;99.90
64685;DHT22;51109;47.414;18.954;2023-12-04T06:59:17;-4.00;99.90
64685;DHT22;51109;47.414;18.954;2023-12-04T07:01:43;-4.00;99.90
64685;DHT22;51109;47.414;18.954;2023-12-04T07:04:09;-3.90;99.90
64685;DHT22;51109;47.414;18.954;2023-12-04T07:06:36;-3.80;99.90
64685;DHT22;51109;47.414;18.954;2023-12-04T07:09:02;-3.80;99.90
64685;DHT22;51109;47.414;18.954;2023-12-04T07:11:28;-3.80;99.90
64685;DHT22;51109;47.414;18.954;2023-12-04T07:13:54;-3.70;99.90
64685;DHT22;51109;47.414;18.954;2023-12-04T07:16:20;-3.80;99.90
64685;DHT22;51109;47.414;18.954;2023-12-04T07:18:46;-3.70;99.90
64685;DHT22;51109;47.414;18.954;2023-12-04T07:21:12;-3.70;99.90
64685;DHT22;51109;47.414;18.954;2023-12-04T07:23:38;-3.70;99.90
64685;DHT22;51109;47.414;18.954;2023-12-04T07:26:04;-3.60;99.90
64685;DHT22;51109;47.414;18.954;2023-12-04T07:28:32;-3.50;99.90
64685;DHT22;51109;47.414;18.954;2023-12-04T07:30:59;-3.40;99.90
64685;DHT22;51109;47.414;18.954;2023-12-04T07:33:24;-3.30;99.90
64685;DHT22;51109;47.414;18.954;2023-12-04T07:35:51;-3.00;99.90
64685;DHT22;51109;47.414;18.954;2023-12-04T07:38:17;-3.00;99.90
64685;DHT22;51109;47.414;18.954;2023-12-04T07:40:45;-3.00;99.90
64685;DHT22;51109;47.414;18.954;2023-12-04T07:43:11;-2.90;99.90
64685;DHT22;51109;47.414;18.954;2023-12-04T07:45:37;-2.90;99.90
64685;DHT22;51109;47.414;18.954;2023-12-04T07:48:04;-2.90;99.90
64685;DHT22;51109;47.414;18.954;2023-12-04T07:50:30;-2.80;99.90
64685;DHT22;51109;47.414;18.954;2023-12-04T07:52:56;-2.60;99.90
64685;DHT22;51109;47.414;18.954;2023-12-04T07:55:21;-2.60;99.90
64685;DHT22;51109;47.414;18.954;2023-12-04T07:57:47;-2.50;99.90
64685;DHT22;51109;47.414;18.954;2023-12-04T08:00:14;-2.50;99.90
64685;DHT22;51109;47.414;18.954;2023-12-04T08:02:40;-2.50;99.90
64685;DHT22;51109;47.414;18.954;2023-12-04T08:05:06;-2.50;99.90
64685;DHT22;51109;47.414;18.954;2023-12-04T08:07:32;-2.50;99.90
64685;DHT22;51109;47.414;18.954;2023-12-04T08:09:58;-2.40;99.90
64685;DHT22;51109;47.414;18.954;2023-12-04T08:12:24;-2.40;99.90
64685;DHT22;51109;47.414;18.954;2023-12-04T08:14:50;-2.10;99.90
64685;DHT22;51109;47.414;18.954;2023-12-04T08:17:16;-2.10;99.90
64685;DHT22;51109;47.414;18.954;2023-12-04T08:19:42;-1.90;99.90
64685;DHT22;51109;47.414;18.954;2023-12-04T08:22:08;-1.90;99.90
64685;DHT22;51109;47.414;18.954;2023-12-04T08:24:33;-1.80;99.90
64685;DHT22;51109;47.414;18.954;2023-12-04T08:26:59;-1.70;99.90
64685;DHT22;51109;47.414;18.954;2023-12-04T08:29:25;-1.60;99.90
64685;DHT22;51109;47.414;18.954;2023-12-04T08:31:51;-1.40;99.90
64685;DHT22;51109;47.414;18.954;2023-12-04T08:34:17;-1.60;99.90
64685;DHT22;51109;47.414;18.954;2023-12-04T08:36:43;-1.60;99.90
64685;DHT22;51109;47.414;18.954;2023-12-04T08:39:09;-1.50;99.90
64685;DHT22;51109;47.414;18.954;2023-12-04T08:41:35;-1.40;99.90
64685;DHT22;51109;47.414;18.954;2023-12-04T08:44:01;-1.40;99.90
64685;DHT22;51109;47.414;18.954;2023-12-04T08:46:27;-1.30;99.90
64685;DHT22;51109;47.414;18.954;2023-12-04T08:48:53;-1.10;99.90
64685;DHT22;51109;47.414;18.954;2023-12-04T08:51:19;-1.10;99.90
64685;DHT22;51109;47.414;18.954;2023-12-04T08:53:45;-1.00;99.90
64685;DHT22;51109;47.414;18.954;2023-12-04T08:56:11;-0.80;99.90
64685;DHT22;51109;47.414;18.954;2023-12-04T08:58:37;-0.80;99.90
64685;DHT22;51109;47.414;18.954;2023-12-04T09:01:04;-0.70;99.90
64685;DHT22;51109;47.414;18.954;2023-12-04T09:03:30;-0.60;99.90
64685;DHT22;51109;47.414;18.954;2023-12-04T09:05:59;-0.50;99.90
64685;DHT22;51109;47.414;18.954;2023-12-04T09:08:26;-0.50;99.90
64685;DHT22;51109;47.414;18.954;2023-12-04T09:10:53;-0.50;99.90
64685;DHT22;51109;47.414;18.954;2023-12-04T09:13:19;-0.40;99.90
64685;DHT22;51109;47.414;18.954;2023-12-04T09:15:45;-0.30;99.90
64685;DHT22;51109;47.414;18.954;2023-12-04T09:18:11;-0.20;99.90
64685;DHT22;51109;47.414;18.954;2023-12-04T09:20:36;-0.10;99.90
64685;DHT22;51109;47.414;18.954;2023-12-04T09:23:02;0.00;99.90
64685;DHT22;51109;47.414;18.954;2023-12-04T09:25:28;0.00;99.90
64685;DHT22;51109;47.414;18.954;2023-12-04T09:27:54;0.00;99.90
64685;DHT22;51109;47.414;18.954;2023-12-04T09:30:20;0.00;99.90
64685;DHT22;51109;47.414;18.954;2023-12-04T09:32:46;0.10;99.90
64685;DHT22;51109;47.414;18.954;2023-12-04T09:35:12;0.20;99.90
64685;DHT22;51109;47.414;18.954;2023-12-04T09:37:38;0.20;99.90
64685;DHT22;51109;47.414;18.954;2023-12-04T09:40:04;0.30;99.90
64685;DHT22;51109;47.414;18.954;2023-12-04T09:42:31;0.30;99.90
64685;DHT22;51109;47.414;18.954;2023-12-04T09:44:58;0.40;99.90
64685;DHT22;51109;47.414;18.954;2023-12-04T09:47:24;0.40;99.90
64685;DHT22;51109;47.414;18.954;2023-12-04T09:49:52;0.50;99.90
64685;DHT22;51109;47.414;18.954;2023-12-04T09:52:22;0.30;99.90
64685;DHT22;51109;47.414;18.954;2023-12-04T09:54:50;0.30;99.90
64685;DHT22;51109;47.414;18.954;2023-12-04T09:57:17;0.40;99.90
64685;DHT22;51109;47.414;18.954;2023-12-04T09:59:44;0.60;99.90
64685;DHT22;51109;47.414;18.954;2023-12-04T10:02:11;0.60;99.90
64685;DHT22;51109;47.414;18.954;2023-12-04T10:04:37;0.70;99.90
64685;DHT22;51109;47.414;18.954;2023-12-04T10:07:03;0.70;99.90
64685;DHT22;51109;47.414;18.954;2023-12-04T10:09:30;0.80;99.90
64685;DHT22;51109;47.414;18.954;2023-12-04T10:11:56;0.90;99.90
64685;DHT22;51109;47.414;18.954;2023-12-04T10:14:23;0.90;99.90
64685;DHT22;51109;47.414;18.954;2023-12-04T10:16:49;1.00;99.90
64685;DHT22;51109;47.414;18.954;2023-12-04T10:19:25;1.10;99.90
64685;DHT22;51109;47.414;18.954;2023-12-04T10:21:53;1.20;99.90
64685;DHT22;51109;47.414;18.954;2023-12-04T10:26:56;1.20;99.90
64685;DHT22;51109;47.414;18.954;2023-12-04T10:29:22;1.30;99.90
64685;DHT22;51109;47.414;18.954;2023-12-04T10:31:50;1.40;99.90
64685;DHT22;51109;47.414;18.954;2023-12-04T10:34:18;1.40;99.90
64685;DHT22;51109;47.414;18.954;2023-12-04T10:36:45;1.50;99.90
64685;DHT22;51109;47.414;18.954;2023-12-04T10:39:11;1.50;99.90
64685;DHT22;51109;47.414;18.954;2023-12-04T10:41:39;1.50;99.90
64685;DHT22;51109;47.414;18.954;2023-12-04T10:44:04;1.50;99.90
64685;DHT22;51109;47.414;18.954;2023-12-04T10:46:31;1.60;99.90
64685;DHT22;51109;47.414;18.954;2023-12-04T10:48:58;1.70;99.90
64685;DHT22;51109;47.414;18.954;2023-12-04T10:51:25;1.70;99.90
64685;DHT22;51109;47.414;18.954;2023-12-04T10:53:52;1.80;99.90
64685;DHT22;51109;47.414;18.954;2023-12-04T10:56:36;1.80;99.90
64685;DHT22;51109;47.414;18.954;2023-12-04T10:59:10;1.80;99.90
64685;DHT22;51109;47.414;18.954;2023-12-04T11:01:39;1.90;99.90
64685;DHT22;51109;47.414;18.954;2023-12-04T11:04:07;1.80;99.90
64685;DHT22;51109;47.414;18.954;2023-12-04T11:06:39;1.90;99.90
64685;DHT22;51109;47.414;18.954;2023-12-04T11:09:07;1.90;99.90
64685;DHT22;51109;47.414;18.954;2023-12-04T11:11:35;2.00;99.90
64685;DHT22;51109;47.414;18.954;2023-12-04T11:14:04;2.20;99.90
64685;DHT22;51109;47.414;18.954;2023-12-04T11:16:39;2.20;99.90
64685;DHT22;51109;47.414;18.954;2023-12-04T11:19:28;2.30;99.90
64685;DHT22;51109;47.414;18.954;2023-12-04T11:21:58;2.30;99.90
64685;DHT22;51109;47.414;18.954;2023-12-04T11:24:24;2.40;99.90
64685;DHT22;51109;47.414;18.954;2023-12-04T11:26:51;2.50;99.90
64685;DHT22;51109;47.414;18.954;2023-12-04T11:29:17;2.40;99.90
64685;DHT22;51109;47.414;18.954;2023-12-04T11:31:44;2.40;99.90
64685;DHT22;51109;47.414;18.954;2023-12-04T11:34:12;2.50;99.90
64685;DHT22;51109;47.414;18.954;2023-12-04T11:36:38;2.50;99.90
64685;DHT22;51109;47.414;18.954;2023-12-04T11:39:09;2.50;99.90
64685;DHT22;51109;47.414;18.954;2023-12-04T11:41:36;2.50;99.90
64685;DHT22;51109;47.414;18.954;2023-12-04T11:44:03;2.60;99.90
64685;DHT22;51109;47.414;18.954;2023-12-04T11:46:29;2.50;99.90
64685;DHT22;51109;47.414;18.954;2023-12-04T11:49:30;2.60;99.90
64685;DHT22;51109;47.414;18.954;2023-12-04T11:51:57;2.60;99.90
64685;DHT22;51109;47.414;18.954;2023-12-04T11:54:23;2.80;99.90
64685;DHT22;51109;47.414;18.954;2023-12-04T11:59:39;2.50;99.90
64685;DHT22;51109;47.414;18.954;2023-12-04T12:02:10;2.50;99.90
64685;DHT22;51109;47.414;18.954;2023-12-04T12:04:37;2.40;99.90
64685;DHT22;51109;47.414;18.954;2023-12-04T12:07:05;2.60;99.90
64685;DHT22;51109;47.414;18.954;2023-12-04T12:09:32;2.50;99.90
64685;DHT22;51109;47.414;18.954;2023-12-04T12:12:02;2.40;99.90
64685;DHT22;51109;47.414;18.954;2023-12-04T12:14:29;2.30;99.90
64685;DHT22;51109;47.414;18.954;2023-12-04T12:16:57;2.20;99.90
64685;DHT22;51109;47.414;18.954;2023-12-04T12:19:24;2.20;99.90
64685;DHT22;51109;47.414;18.954;2023-12-04T12:21:50;2.30;99.90
64685;DHT22;51109;47.414;18.954;2023-12-04T12:24:18;2.10;99.90
64685;DHT22;51109;47.414;18.954;2023-12-04T12:26:44;2.10;99.90
64685;DHT22;51109;47.414;18.954;2023-12-04T12:29:13;2.20;99.90
64685;DHT22;51109;47.414;18.954;2023-12-04T12:31:39;2.20;99.90
64685;DHT22;51109;47.414;18.954;2023-12-04T12:34:05;2.20;99.90
64685;DHT22;51109;47.414;18.954;2023-12-04T12:36:32;2.10;99.90
64685;DHT22;51109;47.414;18.954;2023-12-04T12:39:01;2.00;99.90
64685;DHT22;51109;47.414;18.954;2023-12-04T12:41:30;2.00;99.90
64685;DHT22;51109;47.414;18.954;2023-12-04T12:43:56;2.00;99.90
64685;DHT22;51109;47.414;18.954;2023-12-04T12:46:22;2.00;99.90
64685;DHT22;51109;47.414;18.954;2023-12-04T12:48:48;1.90;99.90
64685;DHT22;51109;47.414;18.954;2023-12-04T12:51:14;1.90;99.90
64685;DHT22;51109;47.414;18.954;2023-12-04T12:53:40;1.80;99.90
64685;DHT22;51109;47.414;18.954;2023-12-04T12:56:07;1.80;99.90
64685;DHT22;51109;47.414;18.954;2023-12-04T12:58:33;1.70;99.90
64685;DHT22;51109;47.414;18.954;2023-12-04T13:01:00;1.70;99.90
64685;DHT22;51109;47.414;18.954;2023-12-04T13:03:28;1.60;99.90
64685;DHT22;51109;47.414;18.954;2023-12-04T13:05:55;1.50;99.90
64685;DHT22;51109;47.414;18.954;2023-12-04T13:08:21;1.40;99.90
64685;DHT22;51109;47.414;18.954;2023-12-04T13:10:48;1.40;99.90
64685;DHT22;51109;47.414;18.954;2023-12-04T13:13:14;1.40;99.90
64685;DHT22;51109;47.414;18.954;2023-12-04T13:15:41;1.30;99.90
64685;DHT22;51109;47.414;18.954;2023-12-04T13:18:08;1.30;99.90
64685;DHT22;51109;47.414;18.954;2023-12-04T13:20:34;1.30;99.90
64685;DHT22;51109;47.414;18.954;2023-12-04T13:23:01;1.20;99.90
64685;DHT22;51109;47.414;18.954;2023-12-04T13:25:27;1.10;99.90
64685;DHT22;51109;47.414;18.954;2023-12-04T13:27:53;1.10;99.90
64685;DHT22;51109;47.414;18.954;2023-12-04T13:30:20;1.10;99.90
64685;DHT22;51109;47.414;18.954;2023-12-04T13:32:46;1.10;99.90
64685;DHT22;51109;47.414;18.954;2023-12-04T13:35:12;1.10;99.90
64685;DHT22;51109;47.414;18.954;2023-12-04T13:37:38;1.00;99.90
64685;DHT22;51109;47.414;18.954;2023-12-04T13:40:05;1.00;99.90
64685;DHT22;51109;47.414;18.954;2023-12-04T13:42:38;1.00;99.90
64685;DHT22;51109;47.414;18.954;2023-12-04T13:45:23;0.90;99.90
64685;DHT22;51109;47.414;18.954;2023-12-04T13:47:49;0.90;99.90
64685;DHT22;51109;47.414;18.954;2023-12-04T13:50:16;0.90;99.90
64685;DHT22;51109;47.414;18.954;2023-12-04T13:52:42;0.80;99.90
64685;DHT22;51109;47.414;18.954;2023-12-04T13:55:09;0.80;99.90
64685;DHT22;51109;47.414;18.954;2023-12-04T13:58:02;0.80;99.90
64685;DHT22;51109;47.414;18.954;2023-12-04T14:00:28;0.80;99.90
64685;DHT22;51109;47.414;18.954;2023-12-04T14:02:54;1.10;99.90
64685;DHT22;51109;47.414;18.954;2023-12-04T14:05:33;0.70;99.90
64685;DHT22;51109;47.414;18.954;2023-12-04T14:08:00;0.70;99.90
64685;DHT22;51109;47.414;18.954;2023-12-04T14:10:26;0.60;99.90
64685;DHT22;51109;47.414;18.954;2023-12-04T14:12:54;0.60;99.90
64685;DHT22;51109;47.414;18.954;2023-12-04T14:15:20;0.50;99.90
64685;DHT22;51109;47.414;18.954;2023-12-04T14:17:46;0.50;99.90
64685;DHT22;51109;47.414;18.954;2023-12-04T14:20:12;0.50;99.90
64685;DHT22;51109;47.414;18.954;2023-12-04T14:22:44;0.40;99.90
64685;DHT22;51109;47.414;18.954;2023-12-04T14:25:14;0.40;99.90
64685;DHT22;51109;47.414;18.954;2023-12-04T14:27:40;0.40;99.90
64685;DHT22;51109;47.414;18.954;2023-12-04T14:30:07;0.40;99.90
64685;DHT22;51109;47.414;18.954;2023-12-04T14:32:34;0.40;99.90
64685;DHT22;51109;47.414;18.954;2023-12-04T14:35:02;0.30;99.90
64685;DHT22;51109;47.414;18.954;2023-12-04T14:37:28;0.30;99.90
64685;DHT22;51109;47.414;18.954;2023-12-04T14:39:54;0.20;99.90
64685;DHT22;51109;47.414;18.954;2023-12-04T14:42:20;0.20;99.90
64685;DHT22;51109;47.414;18.954;2023-12-04T14:44:46;0.20;99.90
64685;DHT22;51109;47.414;18.954;2023-12-04T14:47:13;0.20;99.90
64685;DHT22;51109;47.414;18.954;2023-12-04T14:49:38;0.20;99.90
64685;DHT22;51109;47.414;18.954;2023-12-04T14:52:04;0.20;99.90
64685;DHT22;51109;47.414;18.954;2023-12-04T14:54:33;0.20;99.90
64685;DHT22;51109;47.414;18.954;2023-12-04T14:57:28;0.20;99.90
64685;DHT22;51109;47.414;18.954;2023-12-04T14:59:54;0.20;99.90
64685;DHT22;51109;47.414;18.954;2023-12-04T15:02:38;0.10;99.90
64685;DHT22;51109;47.414;18.954;2023-12-04T15:05:34;0.10;99.90
64685;DHT22;51109;47.414;18.954;2023-12-04T15:08:19;0.10;99.90
64685;DHT22;51109;47.414;18.954;2023-12-04T15:11:03;0.10;99.90
64685;DHT22;51109;47.414;18.954;2023-12-04T15:13:47;0.10;99.90
64685;DHT22;51109;47.414;18.954;2023-12-04T15:16:22;0.10;99.90
64685;DHT22;51109;47.414;18.954;2023-12-04T15:19:05;0.10;99.90
64685;DHT22;51109;47.414;18.954;2023-12-04T15:21:31;0.10;99.90
64685;DHT22;51109;47.414;18.954;2023-12-04T15:23:59;0.10;99.90
64685;DHT22;51109;47.414;18.954;2023-12-04T15:26:25;0.10;99.90
64685;DHT22;51109;47.414;18.954;2023-12-04T15:28:51;0.10;99.90